Time;durP1;ratioP1;P1;durP2;ratioP2;P2;SDS_P1;SDS_P2;PMS_P1;PMS_P2;Temp;Humidity;BMP_temperature;BMP_pressure;BME280_temperature;BME280_humidity;BME280_pressure;Samples;Min_cycle;Max_cycle;Signal;HPM_P1;HPM_P2
2021/06/21 00:02:21;;;;;;;19.60;18.30;;;19.50;99.90;;;;;;5143300;27;20457;-71
2021/06/21 00:04:48;;;;;;;18.20;16.80;;;19.50;99.90;;;;;;5139346;27;20470;-71
2021/06/21 00:07:14;;;;;;;18.20;16.77;;;19.60;99.90;;;;;;5138099;27;20455;-71
2021/06/21 00:09:41;;;;;;;19.63;18.13;;;19.60;99.90;;;;;;5141115;27;20475;-71
2021/06/21 00:12:09;;;;;;;18.80;17.30;;;19.70;99.90;;;;;;5138867;27;20459;-70
2021/06/21 00:14:36;;;;;;;20.20;18.90;;;19.80;99.90;;;;;;5136287;27;20455;-71
2021/06/21 00:17:03;;;;;;;20.43;18.73;;;19.70;99.90;;;;;;5135760;27;20477;-70
2021/06/21 00:19:31;;;;;;;31.30;28.50;;;19.70;99.90;;;;;;5136950;27;20502;-72
2021/06/21 00:21:59;;;;;;;20.70;19.40;;;19.70;99.90;;;;;;5140296;27;20456;-73
2021/06/21 00:24:26;;;;;;;20.80;19.50;;;19.30;99.90;;;;;;5135825;27;20448;-76
2021/06/21 00:26:54;;;;;;;18.90;17.90;;;19.00;99.90;;;;;;5134408;27;20467;-71
2021/06/21 00:29:21;;;;;;;18.03;17.13;;;18.80;99.90;;;;;;5139446;27;20467;-72
2021/06/21 00:31:49;;;;;;;18.17;17.17;;;18.70;99.90;;;;;;5139758;27;20455;-72
2021/06/21 00:34:16;;;;;;;16.60;15.80;;;18.60;99.90;;;;;;5133796;27;20463;-72
2021/06/21 00:36:44;;;;;;;16.23;15.43;;;18.50;99.90;;;;;;5137431;27;20455;-71
2021/06/21 00:39:11;;;;;;;19.33;18.30;;;18.60;99.90;;;;;;5135586;27;20502;-71
2021/06/21 00:41:38;;;;;;;15.60;14.90;;;18.60;99.90;;;;;;5139517;27;20820;-72
2021/06/21 00:44:06;;;;;;;17.40;16.60;;;18.60;99.90;;;;;;5136694;27;20454;-69
2021/06/21 00:46:33;;;;;;;16.10;15.33;;;18.60;99.90;;;;;;5133431;27;20480;-72
2021/06/21 00:49:00;;;;;;;17.67;16.87;;;18.60;99.90;;;;;;5143188;27;20455;-71
2021/06/21 00:51:27;;;;;;;16.30;15.50;;;18.70;99.90;;;;;;5135177;27;20840;-72
2021/06/21 00:53:55;;;;;;;16.00;15.30;;;18.70;99.90;;;;;;5130587;27;20460;-70
2021/06/21 00:56:22;;;;;;;16.73;15.93;;;18.70;99.90;;;;;;5137692;27;20487;-71
2021/06/21 00:58:50;;;;;;;16.03;15.33;;;18.70;99.90;;;;;;5144117;27;20459;-70
2021/06/21 01:01:17;;;;;;;17.10;16.10;;;18.80;99.90;;;;;;5137258;27;20491;-71
2021/06/21 01:03:44;;;;;;;17.33;16.53;;;18.80;99.90;;;;;;5133179;27;20475;-71
2021/06/21 01:06:12;;;;;;;16.37;15.57;;;18.80;99.90;;;;;;5144078;27;20470;-69
2021/06/21 01:08:39;;;;;;;15.97;15.27;;;18.80;99.90;;;;;;5138755;27;20465;-71
2021/06/21 01:11:08;;;;;;;15.33;14.63;;;18.80;99.90;;;;;;5136054;27;20826;-71
2021/06/21 01:13:58;;;;;;;15.60;14.90;;;18.80;99.90;;;;;;5137873;27;20447;-73
2021/06/21 01:16:29;;;;;;;17.03;15.93;;;18.80;99.90;;;;;;5136696;27;20456;-71
2021/06/21 01:19:00;;;;;;;16.47;15.67;;;18.80;99.90;;;;;;5136214;27;20835;-71
2021/06/21 01:22:08;;;;;;;16.67;15.87;;;18.80;99.90;;;;;;5137807;27;20494;-71
2021/06/21 01:25:15;;;;;;;16.00;15.30;;;18.90;99.90;;;;;;5140333;27;20507;-71
2021/06/21 01:27:54;;;;;;;14.43;13.83;;;18.80;99.90;;;;;;5136941;27;20461;-73
2021/06/21 01:30:24;;;;;;;16.13;15.43;;;18.80;99.90;;;;;;5140474;27;20461;-73
2021/06/21 01:32:55;;;;;;;51.90;35.77;;;18.80;99.90;;;;;;5144403;27;20519;-74
2021/06/21 01:35:27;;;;;;;17.90;17.10;;;18.80;99.90;;;;;;5136086;27;20465;-75
2021/06/21 01:37:57;;;;;;;15.00;14.30;;;18.80;99.90;;;;;;5137373;27;20463;-77
2021/06/21 01:40:24;;;;;;;18.53;17.53;;;18.80;99.90;;;;;;5138690;27;20497;-72
2021/06/21 01:42:55;;;;;;;12.83;12.33;;;18.80;99.90;;;;;;5137202;27;20462;-73
2021/06/21 01:45:22;;;;;;;13.23;12.63;;;18.80;99.90;;;;;;5137677;27;20536;-73
2021/06/21 01:47:54;;;;;;;12.87;12.37;;;18.80;99.90;;;;;;5144477;27;20447;-73
2021/06/21 01:50:23;;;;;;;14.17;13.57;;;18.80;99.90;;;;;;5137991;27;20454;-73
2021/06/21 01:52:57;;;;;;;13.97;13.37;;;18.80;99.90;;;;;;5136605;27;20807;-73
2021/06/21 01:55:27;;;;;;;13.37;12.77;;;18.80;99.90;;;;;;5127369;27;20784;-72
2021/06/21 01:57:58;;;;;;;14.07;13.47;;;18.80;99.90;;;;;;5126324;27;21358;-72
2021/06/21 02:00:25;;;;;;;13.00;12.50;;;18.80;99.90;;;;;;5132577;27;20503;-72
2021/06/21 02:02:55;;;;;;;13.20;12.70;;;18.90;99.90;;;;;;5129750;27;20460;-72
2021/06/21 02:05:24;;;;;;;12.27;11.77;;;18.90;99.90;;;;;;5137159;27;20459;-72
2021/06/21 02:07:52;;;;;;;12.10;11.60;;;18.90;99.90;;;;;;5134672;27;20450;-71
2021/06/21 02:10:21;;;;;;;11.83;11.33;;;18.80;99.90;;;;;;5130461;27;20461;-71
2021/06/21 02:12:49;;;;;;;11.63;11.13;;;18.80;99.90;;;;;;5134927;27;20456;-70
2021/06/21 02:15:17;;;;;;;12.03;11.53;;;18.80;99.90;;;;;;5136625;27;20826;-70
2021/06/21 02:17:45;;;;;;;11.50;11.00;;;18.80;99.90;;;;;;5130664;27;20461;-71
2021/06/21 02:20:15;;;;;;;11.73;11.23;;;18.80;99.90;;;;;;5130240;27;20973;-69
2021/06/21 02:22:43;;;;;;;11.93;11.43;;;18.80;99.90;;;;;;5136067;27;20991;-70
2021/06/21 02:25:11;;;;;;;11.40;11.00;;;18.80;99.90;;;;;;5134333;27;20500;-70
2021/06/21 02:27:39;;;;;;;11.53;11.13;;;18.80;99.90;;;;;;5135935;27;20460;-71
2021/06/21 02:30:10;;;;;;;11.10;10.70;;;18.80;99.90;;;;;;5134461;27;20459;-70
2021/06/21 02:32:37;;;;;;;11.27;10.87;;;18.70;99.90;;;;;;5143882;27;20452;-70
2021/06/21 02:35:06;;;;;;;10.63;10.23;;;18.70;99.90;;;;;;5132439;27;20814;-70
2021/06/21 02:37:35;;;;;;;10.90;10.50;;;18.60;99.90;;;;;;5134568;27;20510;-70
2021/06/21 02:40:02;;;;;;;11.33;10.83;;;18.60;99.90;;;;;;5135551;27;20482;-70
2021/06/21 02:42:29;;;;;;;10.60;10.20;;;18.60;99.90;;;;;;5135339;27;20448;-72
2021/06/21 02:44:56;;;;;;;10.90;10.50;;;18.50;99.90;;;;;;5131829;27;20471;-71
2021/06/21 02:47:23;;;;;;;10.63;10.23;;;18.50;99.90;;;;;;5139858;27;20469;-72
2021/06/21 02:49:50;;;;;;;10.90;10.50;;;18.50;99.90;;;;;;5136268;27;20463;-71
2021/06/21 02:52:27;;;;;;;10.80;10.40;;;18.50;99.90;;;;;;5138959;27;20459;-71
2021/06/21 02:55:07;;;;;;;11.37;10.97;;;18.60;99.90;;;;;;5139057;27;20479;-71
2021/06/21 02:57:42;;;;;;;12.23;11.73;;;18.60;99.90;;;;;;5134543;27;20825;-70
2021/06/21 03:00:10;;;;;;;11.50;11.03;;;18.60;99.90;;;;;;5141964;27;21003;-69
2021/06/21 03:02:40;;;;;;;11.50;11.00;;;18.60;99.90;;;;;;5142389;27;20451;-70
2021/06/21 03:05:08;;;;;;;12.17;11.67;;;18.50;99.90;;;;;;5138561;27;20462;-72
2021/06/21 03:07:37;;;;;;;11.87;11.37;;;18.50;99.90;;;;;;5131123;27;20452;-70
2021/06/21 03:10:08;;;;;;;11.10;10.70;;;18.50;99.90;;;;;;5138180;27;20462;-72
2021/06/21 03:12:37;;;;;;;10.70;10.30;;;18.40;99.90;;;;;;5132077;27;20459;-70
2021/06/21 03:15:04;;;;;;;10.80;10.40;;;18.50;99.90;;;;;;5140946;27;20455;-70
2021/06/21 03:17:35;;;;;;;11.67;11.17;;;18.50;99.90;;;;;;5137084;27;20460;-70
2021/06/21 03:20:02;;;;;;;11.57;11.07;;;18.50;99.90;;;;;;5141261;27;20480;-71
2021/06/21 03:22:29;;;;;;;12.00;11.50;;;18.50;99.90;;;;;;5137790;27;20560;-72
2021/06/21 03:24:56;;;;;;;11.17;10.77;;;18.50;99.90;;;;;;5139216;27;20805;-71
2021/06/21 03:27:32;;;;;;;11.57;11.07;;;18.40;99.90;;;;;;5140330;27;20597;-71
2021/06/21 03:29:59;;;;;;;11.50;11.00;;;18.40;99.90;;;;;;5140745;27;20453;-71
2021/06/21 03:32:28;;;;;;;11.23;10.83;;;18.30;99.90;;;;;;5144315;27;20482;-70
2021/06/21 03:34:57;;;;;;;12.50;12.00;;;18.30;99.90;;;;;;5132882;27;20466;-71
2021/06/21 03:37:24;;;;;;;11.03;10.63;;;18.30;99.90;;;;;;5141482;27;20555;-71
2021/06/21 03:39:51;;;;;;;11.33;10.90;;;18.30;99.90;;;;;;5145217;27;20518;-70
2021/06/21 03:42:19;;;;;;;11.40;10.90;;;18.30;99.90;;;;;;5145032;27;20489;-71
2021/06/21 03:44:47;;;;;;;11.50;11.00;;;18.20;99.90;;;;;;5135714;27;20478;-71
2021/06/21 03:47:15;;;;;;;11.50;11.00;;;18.30;99.90;;;;;;5141061;27;20967;-71
2021/06/21 03:49:43;;;;;;;12.27;11.77;;;18.30;99.90;;;;;;5137940;27;20452;-71
2021/06/21 03:52:11;;;;;;;12.30;11.80;;;18.30;99.90;;;;;;5141204;27;20966;-71
2021/06/21 03:54:38;;;;;;;12.40;11.90;;;18.20;99.90;;;;;;5134422;27;20666;-71
2021/06/21 03:57:06;;;;;;;12.50;12.00;;;18.30;99.90;;;;;;5137299;27;20558;-73
2021/06/21 03:59:33;;;;;;;12.73;12.13;;;18.20;99.90;;;;;;5145635;27;20455;-70
2021/06/21 04:02:02;;;;;;;12.90;12.30;;;18.20;99.90;;;;;;5143751;27;20498;-71
2021/06/21 04:04:29;;;;;;;13.90;13.30;;;18.20;99.90;;;;;;5141610;27;20451;-71
2021/06/21 04:06:56;;;;;;;13.77;13.17;;;18.20;99.90;;;;;;5141791;27;20462;-71
2021/06/21 04:09:23;;;;;;;13.23;12.63;;;18.10;99.90;;;;;;5145744;27;20472;-74
2021/06/21 04:11:50;;;;;;;13.90;13.30;;;18.10;99.90;;;;;;5136887;27;20453;-74
2021/06/21 04:14:17;;;;;;;13.60;13.00;;;18.10;99.90;;;;;;5141916;27;20454;-71
2021/06/21 04:16:44;;;;;;;13.00;12.50;;;18.10;99.90;;;;;;5143884;27;20626;-73
2021/06/21 04:19:12;;;;;;;12.80;12.30;;;18.00;99.90;;;;;;5140289;27;20497;-74
2021/06/21 04:21:39;;;;;;;13.30;12.70;;;17.90;99.90;;;;;;5135765;27;20471;-71
2021/06/21 04:24:07;;;;;;;13.30;12.70;;;17.90;99.90;;;;;;5139658;27;20462;-75
2021/06/21 04:26:36;;;;;;;13.83;13.23;;;17.90;99.90;;;;;;5143987;27;20471;-74
2021/06/21 04:29:03;;;;;;;13.37;12.77;;;17.80;99.90;;;;;;5144404;27;20474;-71
2021/06/21 04:31:30;;;;;;;12.63;12.13;;;17.70;99.90;;;;;;5137367;27;20814;-71
2021/06/21 04:33:57;;;;;;;13.03;12.53;;;17.70;99.90;;;;;;5144519;27;20451;-70
2021/06/21 04:36:26;;;;;;;13.53;12.93;;;17.50;99.90;;;;;;5138072;27;20503;-72
2021/06/21 04:38:53;;;;;;;13.57;12.97;;;17.50;99.90;;;;;;5136823;27;20872;-74
2021/06/21 04:41:19;;;;;;;13.43;12.83;;;17.40;99.90;;;;;;5145227;27;20832;-71
2021/06/21 04:43:46;;;;;;;12.83;12.33;;;17.30;99.90;;;;;;5137911;27;20452;-72
2021/06/21 04:46:14;;;;;;;12.83;12.33;;;17.30;99.90;;;;;;5139343;27;20456;-71
2021/06/21 04:48:42;;;;;;;13.27;12.70;;;17.20;99.90;;;;;;5139211;27;20803;-71
2021/06/21 04:51:09;;;;;;;17.50;16.30;;;17.20;99.90;;;;;;5144076;27;20869;-71
2021/06/21 04:53:37;;;;;;;17.20;16.20;;;17.20;99.90;;;;;;5142688;27;20820;-71
2021/06/21 04:56:05;;;;;;;17.90;16.80;;;17.30;99.90;;;;;;5147130;27;20834;-73
2021/06/21 04:58:35;;;;;;;18.23;17.03;;;17.30;99.90;;;;;;5139041;27;20461;-71
2021/06/21 05:01:02;;;;;;;19.60;18.40;;;17.30;99.90;;;;;;5137378;27;20468;-72
2021/06/21 05:03:29;;;;;;;18.50;17.10;;;17.30;99.90;;;;;;5136714;27;20614;-71
2021/06/21 05:05:56;;;;;;;19.67;18.27;;;17.30;99.90;;;;;;5143089;27;20856;-73
2021/06/21 05:08:24;;;;;;;19.20;18.00;;;17.30;99.90;;;;;;5144234;27;20566;-71
2021/06/21 05:10:52;;;;;;;20.27;18.77;;;17.40;99.90;;;;;;5138387;27;20459;-71
2021/06/21 05:13:19;;;;;;;20.20;18.90;;;17.50;99.90;;;;;;5141060;27;20460;-71
2021/06/21 05:15:46;;;;;;;20.73;19.37;;;17.50;99.90;;;;;;5138533;27;20462;-71
2021/06/21 05:18:13;;;;;;;21.97;20.47;;;17.40;99.90;;;;;;5148049;27;20466;-71
2021/06/21 05:20:40;;;;;;;21.90;20.20;;;17.30;99.90;;;;;;5142715;27;20551;-71
2021/06/21 05:23:06;;;;;;;23.73;21.83;;;17.20;99.90;;;;;;5141673;27;20964;-71
2021/06/21 05:25:34;;;;;;;20.60;19.20;;;17.10;99.90;;;;;;5142528;27;20448;-71
2021/06/21 05:28:03;;;;;;;23.30;21.53;;;17.10;99.90;;;;;;5139122;27;20542;-70
2021/06/21 05:30:30;;;;;;;22.43;20.83;;;17.10;99.90;;;;;;5141053;27;20456;-73
2021/06/21 05:32:57;;;;;;;22.13;20.43;;;17.10;99.90;;;;;;5138222;27;20454;-71
2021/06/21 05:35:24;;;;;;;22.63;20.93;;;17.20;99.90;;;;;;5136533;27;20888;-71
2021/06/21 05:37:51;;;;;;;23.63;21.97;;;17.10;99.90;;;;;;5148319;27;20851;-70
2021/06/21 05:40:19;;;;;;;23.90;21.77;;;17.10;99.90;;;;;;5142896;27;20999;-71
2021/06/21 05:42:46;;;;;;;22.63;20.93;;;17.20;99.90;;;;;;5143182;27;20852;-71
2021/06/21 05:45:17;;;;;;;23.03;21.23;;;17.20;99.90;;;;;;5139264;27;20447;-71
2021/06/21 05:47:45;;;;;;;23.13;21.27;;;17.00;99.90;;;;;;5140726;27;20495;-71
2021/06/21 05:50:13;;;;;;;21.90;20.10;;;17.10;99.90;;;;;;5143566;27;20467;-73
2021/06/21 05:52:40;;;;;;;22.17;20.50;;;17.20;99.90;;;;;;5137763;27;20462;-71
2021/06/21 05:55:08;;;;;;;22.30;20.47;;;17.20;99.90;;;;;;5137319;27;20547;-71
2021/06/21 05:57:36;;;;;;;21.63;19.93;;;17.10;99.90;;;;;;5140171;27;20449;-70
2021/06/21 06:00:05;;;;;;;20.30;18.70;;;17.10;99.90;;;;;;5137082;27;20490;-71
2021/06/21 06:02:33;;;;;;;19.93;18.30;;;17.10;99.90;;;;;;5128988;27;20697;-73
2021/06/21 06:05:00;;;;;;;20.00;18.40;;;16.90;99.90;;;;;;5125170;27;20467;-73
2021/06/21 06:07:26;;;;;;;20.27;18.60;;;16.90;99.90;;;;;;5132252;27;20461;-70
2021/06/21 06:09:53;;;;;;;21.33;19.60;;;16.90;99.90;;;;;;5126279;27;20674;-71
2021/06/21 06:12:20;;;;;;;20.23;18.63;;;16.80;99.90;;;;;;5129746;27;20455;-70
2021/06/21 06:14:48;;;;;;;21.10;19.27;;;16.70;99.90;;;;;;5125831;27;20467;-73
2021/06/21 06:17:15;;;;;;;19.33;17.67;;;16.60;99.90;;;;;;5126839;27;20463;-70
2021/06/21 06:19:43;;;;;;;20.07;18.47;;;16.50;99.90;;;;;;5134310;27;20845;-70
2021/06/21 06:22:11;;;;;;;20.63;19.03;;;16.50;99.90;;;;;;5128154;27;20848;-71
2021/06/21 06:24:38;;;;;;;21.57;19.43;;;16.40;99.90;;;;;;5131198;27;20459;-70
2021/06/21 06:27:06;;;;;;;21.73;19.57;;;16.40;99.90;;;;;;5131851;27;20468;-74
2021/06/21 06:29:33;;;;;;;19.77;18.27;;;16.40;99.90;;;;;;5135878;27;20459;-70
2021/06/21 06:32:01;;;;;;;20.53;18.87;;;16.50;99.90;;;;;;5139472;27;20459;-71
2021/06/21 06:34:28;;;;;;;19.60;17.70;;;16.50;99.90;;;;;;5133872;27;20822;-71
2021/06/21 06:36:56;;;;;;;20.10;18.50;;;16.30;99.90;;;;;;5137149;27;20452;-70
2021/06/21 06:39:23;;;;;;;21.33;19.40;;;16.20;99.90;;;;;;5136550;27;20466;-70
2021/06/21 06:41:50;;;;;;;19.87;18.27;;;16.20;99.90;;;;;;5134760;27;20483;-71
2021/06/21 06:44:17;;;;;;;21.00;19.10;;;16.20;99.90;;;;;;5131516;27;20468;-73
2021/06/21 06:46:44;;;;;;;17.50;16.10;;;16.20;99.90;;;;;;5138671;27;20463;-69
2021/06/21 06:49:11;;;;;;;15.73;14.63;;;16.30;99.90;;;;;;5134756;27;20461;-69
2021/06/21 06:51:41;;;;;;;16.00;14.50;;;16.30;99.90;;;;;;5139337;27;20466;-73
2021/06/21 06:54:21;;;;;;;16.70;15.40;;;16.30;99.90;;;;;;5139722;27;20460;-71
2021/06/21 06:57:00;;;;;;;16.47;14.97;;;16.10;99.90;;;;;;5129468;27;20474;-72
2021/06/21 06:59:29;;;;;;;15.83;14.63;;;16.10;99.90;;;;;;5135993;27;20466;-72
2021/06/21 07:01:57;;;;;;;15.47;13.93;;;16.00;99.90;;;;;;5139110;27;20553;-69
2021/06/21 07:04:24;;;;;;;15.10;14.00;;;15.90;99.90;;;;;;5138423;27;20459;-71
2021/06/21 07:06:51;;;;;;;16.07;14.97;;;15.80;99.90;;;;;;5134791;27;20451;-72
2021/06/21 07:09:20;;;;;;;15.83;14.73;;;15.80;99.90;;;;;;5135592;27;20451;-69
2021/06/21 07:11:50;;;;;;;16.60;15.20;;;15.70;99.90;;;;;;5126448;27;20979;-69
2021/06/21 07:14:18;;;;;;;15.20;14.20;;;15.50;99.90;;;;;;5133718;27;21408;-69
2021/06/21 07:16:46;;;;;;;15.20;14.20;;;15.60;99.90;;;;;;5142663;27;20546;-72
2021/06/21 07:19:14;;;;;;;14.33;13.43;;;15.70;99.90;;;;;;5139281;27;20845;-69
2021/06/21 07:21:40;;;;;;;14.80;13.70;;;15.70;99.90;;;;;;5136889;27;20483;-69
2021/06/21 07:24:08;;;;;;;13.57;12.77;;;15.70;99.90;;;;;;5140466;27;20455;-71
2021/06/21 07:26:38;;;;;;;14.00;13.10;;;15.60;99.90;;;;;;5134639;27;20471;-69
2021/06/21 07:29:05;;;;;;;12.70;11.83;;;15.60;99.90;;;;;;5133597;27;20829;-68
2021/06/21 07:31:32;;;;;;;13.77;12.87;;;15.70;99.90;;;;;;5134761;27;20467;-69
2021/06/21 07:33:59;;;;;;;13.13;12.40;;;15.60;99.90;;;;;;5132985;27;20459;-69
2021/06/21 07:36:26;;;;;;;13.73;13.03;;;15.70;99.90;;;;;;5131967;27;20559;-69
2021/06/21 07:38:54;;;;;;;15.63;14.33;;;15.70;99.90;;;;;;5147489;27;20456;-70
2021/06/21 07:41:20;;;;;;;14.40;13.50;;;15.70;99.90;;;;;;5139455;27;20490;-70
2021/06/21 07:43:50;;;;;;;14.00;13.30;;;15.80;99.90;;;;;;5136125;27;20984;-70
2021/06/21 07:46:17;;;;;;;15.00;14.07;;;15.90;99.90;;;;;;5134459;27;20459;-69
2021/06/21 07:48:45;;;;;;;14.50;13.70;;;15.90;99.90;;;;;;5137894;27;20451;-69
2021/06/21 07:51:14;;;;;;;14.27;13.57;;;15.90;99.90;;;;;;5140111;27;20463;-69
2021/06/21 07:53:42;;;;;;;14.40;13.70;;;16.00;99.90;;;;;;5138676;27;20737;-69
2021/06/21 07:56:12;;;;;;;14.30;13.60;;;16.00;99.90;;;;;;5135666;27;20831;-69
2021/06/21 07:58:41;;;;;;;14.93;13.87;;;15.90;99.90;;;;;;5136628;27;20463;-68
2021/06/21 08:01:11;;;;;;;13.27;12.67;;;15.70;99.90;;;;;;5142672;27;20459;-71
2021/06/21 08:03:39;;;;;;;13.63;12.93;;;15.80;99.90;;;;;;5142071;27;20573;-69
2021/06/21 08:06:08;;;;;;;13.03;12.30;;;15.80;99.90;;;;;;5139908;27;20991;-70
2021/06/21 08:08:35;;;;;;;11.83;11.23;;;15.90;99.90;;;;;;5139948;27;20475;-70
2021/06/21 08:11:03;;;;;;;11.20;10.70;;;16.00;99.90;;;;;;5142408;27;20483;-71
2021/06/21 08:13:30;;;;;;;11.33;10.83;;;16.00;99.90;;;;;;5140380;27;20459;-70
2021/06/21 08:15:57;;;;;;;12.60;12.00;;;15.90;99.90;;;;;;5131950;27;21293;-70
2021/06/21 08:18:25;;;;;;;11.77;11.27;;;15.80;99.90;;;;;;5127816;27;20641;-69
2021/06/21 08:20:52;;;;;;;11.60;11.10;;;15.70;99.90;;;;;;5130446;27;20455;-70
2021/06/21 08:23:20;;;;;;;11.30;10.80;;;15.60;99.90;;;;;;5139696;27;20487;-70
2021/06/21 08:25:47;;;;;;;12.27;11.37;;;15.70;99.90;;;;;;5140667;27;20470;-69
2021/06/21 08:28:16;;;;;;;10.57;10.17;;;15.80;99.90;;;;;;5139511;27;20630;-72
2021/06/21 08:30:43;;;;;;;8.97;8.47;;;16.20;99.90;;;;;;5137843;27;20468;-70
2021/06/21 08:33:10;;;;;;;8.50;8.20;;;16.70;99.90;;;;;;5138565;27;20503;-72
2021/06/21 08:35:39;;;;;;;8.40;8.00;;;17.10;99.90;;;;;;5140265;27;20456;-70
2021/06/21 08:38:06;;;;;;;8.83;8.53;;;17.70;99.90;;;;;;5139276;27;20465;-69
2021/06/21 08:40:34;;;;;;;9.70;9.30;;;18.00;99.90;;;;;;5141835;27;20462;-69
2021/06/21 08:43:01;;;;;;;11.37;10.87;;;17.80;99.90;;;;;;5137759;27;20653;-72
2021/06/21 08:45:30;;;;;;;12.27;11.47;;;17.40;99.90;;;;;;5140988;27;20499;-69
2021/06/21 08:47:57;;;;;;;12.50;11.90;;;17.10;99.90;;;;;;5141089;27;20973;-68
2021/06/21 08:50:25;;;;;;;12.23;11.73;;;16.80;99.90;;;;;;5140452;27;20455;-68
2021/06/21 08:52:55;;;;;;;11.70;11.10;;;16.50;99.90;;;;;;5141343;27;20460;-68
2021/06/21 08:55:22;;;;;;;11.70;11.17;;;16.40;99.90;;;;;;5140469;27;21013;-69
2021/06/21 08:57:50;;;;;;;11.27;10.77;;;16.30;99.90;;;;;;5138870;27;20534;-69
2021/06/21 09:00:20;;;;;;;12.37;11.70;;;16.40;99.90;;;;;;5137688;27;21029;-69
2021/06/21 09:02:48;;;;;;;12.60;12.03;;;16.30;99.90;;;;;;5138555;27;21084;-71
2021/06/21 09:05:16;;;;;;;11.40;10.90;;;16.50;99.90;;;;;;5137111;27;20571;-69
2021/06/21 09:07:43;;;;;;;12.57;12.07;;;16.60;99.90;;;;;;5136183;27;20478;-69
2021/06/21 09:10:25;;;;;;;13.77;13.17;;;16.50;99.90;;;;;;5131001;27;20884;-68
2021/06/21 09:13:05;;;;;;;13.70;13.00;;;16.50;99.90;;;;;;5134556;27;20990;-70
2021/06/21 09:15:33;;;;;;;13.30;12.70;;;16.60;99.90;;;;;;5133574;27;20873;-71
2021/06/21 09:18:01;;;;;;;12.90;12.40;;;16.70;99.90;;;;;;5136450;27;20459;-69
2021/06/21 09:20:28;;;;;;;13.20;12.60;;;16.80;99.90;;;;;;5131550;27;20538;-68
2021/06/21 09:23:01;;;;;;;13.90;13.17;;;16.70;99.90;;;;;;5133057;27;20568;-69
2021/06/21 09:25:29;;;;;;;13.37;12.77;;;16.60;99.90;;;;;;5130165;27;20911;-69
2021/06/21 09:27:58;;;;;;;14.00;13.40;;;16.70;99.90;;;;;;5127686;27;21279;-70
2021/06/21 09:30:25;;;;;;;14.70;14.00;;;16.70;99.90;;;;;;5131085;27;20459;-69
2021/06/21 09:32:54;;;;;;;13.63;12.93;;;16.60;99.90;;;;;;5137666;27;20491;-69
2021/06/21 09:35:39;;;;;;;14.30;13.37;;;16.50;99.90;;;;;;5128452;27;20459;-69
2021/06/21 09:38:13;;;;;;;13.30;12.70;;;16.60;99.90;;;;;;5142040;27;20821;-70
2021/06/21 09:40:46;;;;;;;12.47;11.97;;;16.90;99.90;;;;;;5131259;27;20484;-68
2021/06/21 09:43:21;;;;;;;12.40;11.90;;;16.90;99.90;;;;;;5130945;27;20839;-69
2021/06/21 09:46:13;;;;;;;9.73;9.33;;;17.00;99.90;;;;;;5138107;27;20473;-70
2021/06/21 09:48:43;;;;;;;10.00;9.60;;;17.20;99.90;;;;;;5115270;27;20484;-70
2021/06/21 09:51:22;;;;;;;11.00;10.50;;;17.30;99.90;;;;;;5137114;27;20487;-70
2021/06/21 09:53:54;;;;;;;11.03;10.53;;;17.40;99.90;;;;;;5130094;27;21024;-69
2021/06/21 09:56:38;;;;;;;12.00;11.50;;;17.40;99.90;;;;;;5132372;27;20868;-69
2021/06/21 09:59:20;;;;;;;12.10;11.60;;;17.50;99.90;;;;;;5128620;27;20468;-69
2021/06/21 10:02:01;;;;;;;12.20;11.70;;;17.30;99.90;;;;;;5127275;27;20536;-70
2021/06/21 10:04:28;;;;;;;12.27;11.77;;;17.60;99.90;;;;;;5129666;27;20447;-70
2021/06/21 10:06:55;;;;;;;12.70;12.20;;;18.10;99.90;;;;;;5129805;27;20460;-74
2021/06/21 10:09:22;;;;;;;13.00;12.50;;;17.90;99.90;;;;;;5136116;27;20459;-72
2021/06/21 10:11:50;;;;;;;12.53;12.03;;;17.90;99.90;;;;;;5139842;27;20467;-70
2021/06/21 10:14:19;;;;;;;12.47;11.97;;;18.10;99.90;;;;;;5139863;27;20824;-70
2021/06/21 10:16:48;;;;;;;12.60;12.10;;;18.10;99.90;;;;;;5134966;27;20939;-68
2021/06/21 10:19:17;;;;;;;14.10;13.30;;;18.10;99.90;;;;;;5139773;27;21004;-70
2021/06/21 10:21:46;;;;;;;14.87;14.17;;;18.40;99.90;;;;;;5133398;27;20464;-69
2021/06/21 10:24:14;;;;;;;13.70;13.10;;;18.50;99.90;;;;;;5133948;27;20494;-70
2021/06/21 10:26:45;;;;;;;14.07;13.37;;;19.00;99.90;;;;;;5134851;27;20460;-71
2021/06/21 10:29:13;;;;;;;14.60;14.00;;;19.00;99.90;;;;;;5128302;27;20581;-69
2021/06/21 10:31:43;;;;;;;13.93;13.33;;;18.90;99.90;;;;;;5135690;27;20519;-69
2021/06/21 10:34:10;;;;;;;14.90;14.20;;;19.00;99.90;;;;;;5128258;27;20467;-70
2021/06/21 10:36:41;;;;;;;14.80;14.10;;;19.20;99.90;;;;;;5130425;27;20470;-70
2021/06/21 10:39:10;;;;;;;14.73;14.03;;;19.40;99.90;;;;;;5131499;27;20941;-69
2021/06/21 10:41:37;;;;;;;15.13;14.43;;;19.80;99.90;;;;;;5134907;27;20477;-70
2021/06/21 10:44:05;;;;;;;14.27;13.67;;;19.70;99.90;;;;;;5137498;27;20847;-70
2021/06/21 10:46:34;;;;;;;14.37;13.60;;;19.80;99.90;;;;;;5132286;27;20461;-72
2021/06/21 10:49:33;;;;;;;13.90;13.30;;;19.80;99.90;;;;;;5132516;27;20970;-71
2021/06/21 10:52:00;;;;;;;13.90;13.30;;;19.90;99.90;;;;;;5115064;27;21495;-70
2021/06/21 10:54:29;;;;;;;13.80;13.20;;;19.40;99.90;;;;;;5132807;27;20495;-70
2021/06/21 10:56:57;;;;;;;14.73;13.33;;;19.10;99.90;;;;;;5130251;27;20447;-70
2021/06/21 10:59:25;;;;;;;13.70;13.10;;;18.70;99.90;;;;;;5138007;27;20544;-70
2021/06/21 11:01:55;;;;;;;12.80;12.20;;;18.50;99.90;;;;;;5131636;27;20466;-70
2021/06/21 11:04:45;;;;;;;12.60;12.10;;;18.30;99.90;;;;;;5127823;27;20486;-70
2021/06/21 11:07:13;;;;;;;12.63;12.13;;;18.00;99.90;;;;;;5142365;27;20452;-70
2021/06/21 11:09:42;;;;;;;12.60;12.00;;;18.20;99.90;;;;;;5137356;27;20876;-72
2021/06/21 11:12:39;;;;;;;12.60;12.00;;;18.20;99.90;;;;;;5130778;27;20994;-70
2021/06/21 11:15:16;;;;;;;12.50;12.00;;;18.10;99.90;;;;;;5132091;27;20455;-71
2021/06/21 11:17:58;;;;;;;12.90;12.40;;;18.20;99.90;;;;;;5132355;27;20464;-70
2021/06/21 11:20:44;;;;;;;12.50;11.90;;;18.00;99.90;;;;;;5137487;27;20483;-69
2021/06/21 11:23:32;;;;;;;12.57;12.07;;;17.90;99.90;;;;;;5133946;27;20989;-70
2021/06/21 11:25:59;;;;;;;11.73;11.23;;;17.70;99.90;;;;;;5136656;27;20460;-73
2021/06/21 11:28:36;;;;;;;12.13;11.63;;;17.50;99.90;;;;;;5137298;27;20460;-70
2021/06/21 11:31:22;;;;;;;12.30;11.80;;;17.40;99.90;;;;;;5136240;27;20827;-70
2021/06/21 11:33:52;;;;;;;11.50;11.00;;;17.40;99.90;;;;;;5130763;27;20958;-70
2021/06/21 11:36:38;;;;;;;12.13;11.63;;;17.50;99.90;;;;;;5135632;27;20447;-70
2021/06/21 11:39:18;;;;;;;12.37;11.83;;;17.40;99.90;;;;;;5142827;27;20459;-69
2021/06/21 11:41:52;;;;;;;11.97;11.37;;;17.40;99.90;;;;;;5134527;27;21262;-71
2021/06/21 11:44:45;;;;;;;12.83;12.27;;;17.50;99.90;;;;;;5141411;27;20992;-70
2021/06/21 11:47:20;;;;;;;12.83;12.30;;;17.40;99.90;;;;;;5141727;27;21395;-70
2021/06/21 11:49:50;;;;;;;12.03;11.53;;;17.50;99.90;;;;;;5132579;27;20936;-71
2021/06/21 11:52:18;;;;;;;12.80;12.20;;;17.50;99.90;;;;;;5138850;27;20867;-72
2021/06/21 11:54:46;;;;;;;12.60;12.10;;;17.30;99.90;;;;;;5139091;27;20487;-68
2021/06/21 11:57:14;;;;;;;14.00;13.30;;;17.30;99.90;;;;;;5140079;27;20466;-71
2021/06/21 11:59:42;;;;;;;13.33;12.73;;;17.10;99.90;;;;;;5136513;27;20991;-70
2021/06/21 12:02:11;;;;;;;12.40;11.90;;;17.20;99.90;;;;;;5139440;27;20466;-71
2021/06/21 12:04:39;;;;;;;13.40;12.80;;;17.30;99.90;;;;;;5134268;27;20505;-70
2021/06/21 12:07:08;;;;;;;11.80;11.30;;;17.10;99.90;;;;;;5135855;27;20721;-70
2021/06/21 12:09:40;;;;;;;12.83;12.23;;;17.20;99.90;;;;;;5134099;27;20461;-70
2021/06/21 12:12:08;;;;;;;12.90;12.30;;;17.00;99.90;;;;;;5136296;27;20822;-70
2021/06/21 12:14:35;;;;;;;12.17;11.67;;;17.20;99.90;;;;;;5136996;27;20455;-71
2021/06/21 12:17:04;;;;;;;12.17;11.67;;;17.40;99.90;;;;;;5137953;27;20467;-72
2021/06/21 12:19:32;;;;;;;12.73;12.23;;;17.70;99.90;;;;;;5139833;27;20684;-70
2021/06/21 12:22:01;;;;;;;14.07;13.47;;;18.00;99.90;;;;;;5132928;27;20463;-70
2021/06/21 12:24:31;;;;;;;13.20;12.60;;;18.10;99.90;;;;;;5137665;27;20539;-70
2021/06/21 12:27:00;;;;;;;14.13;13.33;;;18.10;99.90;;;;;;5130279;27;20559;-70
2021/06/21 12:29:29;;;;;;;14.27;13.63;;;17.90;99.90;;;;;;5136496;27;20946;-70
2021/06/21 12:31:59;;;;;;;14.30;13.70;;;18.00;99.90;;;;;;5137327;27;20471;-70
2021/06/21 12:34:47;;;;;;;14.57;13.50;;;17.70;99.90;;;;;;5137420;27;20986;-72
2021/06/21 12:37:20;;;;;;;14.47;13.77;;;17.70;99.90;;;;;;5138881;27;20464;-70
2021/06/21 12:39:50;;;;;;;14.60;13.90;;;17.60;99.90;;;;;;5121441;27;20890;-71
2021/06/21 12:42:19;;;;;;;13.80;13.10;;;17.60;99.90;;;;;;5133450;27;21016;-70